sensor_id;sensor_type;location;lat;lon;timestamp;P1;durP1;ratioP1;P2;durP2;ratioP2
29218;SDS011;16421;50.202;7.852;2024-01-15T00:01:11;31.98;;;13.73;;
29218;SDS011;16421;50.202;7.852;2024-01-15T00:06:14;28.65;;;13.57;;
29218;SDS011;16421;50.202;7.852;2024-01-15T00:11:18;32.20;;;14.65;;
29218;SDS011;16421;50.202;7.852;2024-01-15T00:16:22;34.05;;;13.20;;
29218;SDS011;16421;50.202;7.852;2024-01-15T00:21:25;31.00;;;13.27;;
29218;SDS011;16421;50.202;7.852;2024-01-15T00:26:29;34.75;;;14.30;;
29218;SDS011;16421;50.202;7.852;2024-01-15T00:31:33;25.27;;;11.18;;
29218;SDS011;16421;50.202;7.852;2024-01-15T00:36:36;31.67;;;13.73;;
29218;SDS011;16421;50.202;7.852;2024-01-15T00:41:41;31.45;;;14.02;;
29218;SDS011;16421;50.202;7.852;2024-01-15T00:46:44;30.85;;;12.68;;
29218;SDS011;16421;50.202;7.852;2024-01-15T00:51:48;31.40;;;12.77;;
29218;SDS011;16421;50.202;7.852;2024-01-15T00:56:52;26.83;;;12.45;;
29218;SDS011;16421;50.202;7.852;2024-01-15T01:01:56;23.27;;;11.32;;
29218;SDS011;16421;50.202;7.852;2024-01-15T01:07:00;31.17;;;12.43;;
29218;SDS011;16421;50.202;7.852;2024-01-15T01:12:04;23.17;;;10.00;;
29218;SDS011;16421;50.202;7.852;2024-01-15T01:17:08;30.37;;;12.30;;
29218;SDS011;16421;50.202;7.852;2024-01-15T01:22:11;25.17;;;11.27;;
29218;SDS011;16421;50.202;7.852;2024-01-15T01:27:16;26.65;;;11.82;;
29218;SDS011;16421;50.202;7.852;2024-01-15T01:32:19;30.88;;;12.35;;
29218;SDS011;16421;50.202;7.852;2024-01-15T01:37:23;31.23;;;12.57;;
29218;SDS011;16421;50.202;7.852;2024-01-15T01:42:27;27.70;;;12.45;;
29218;SDS011;16421;50.202;7.852;2024-01-15T01:47:30;26.90;;;12.45;;
29218;SDS011;16421;50.202;7.852;2024-01-15T01:52:34;25.60;;;11.85;;
29218;SDS011;16421;50.202;7.852;2024-01-15T01:57:40;25.88;;;11.20;;
29218;SDS011;16421;50.202;7.852;2024-01-15T02:02:44;28.13;;;12.60;;
29218;SDS011;16421;50.202;7.852;2024-01-15T02:07:47;27.55;;;12.13;;
29218;SDS011;16421;50.202;7.852;2024-01-15T02:12:52;29.52;;;12.73;;
29218;SDS011;16421;50.202;7.852;2024-01-15T02:17:56;23.25;;;10.77;;
29218;SDS011;16421;50.202;7.852;2024-01-15T02:23:03;24.73;;;11.07;;
29218;SDS011;16421;50.202;7.852;2024-01-15T02:28:12;29.00;;;11.77;;
29218;SDS011;16421;50.202;7.852;2024-01-15T02:33:16;25.38;;;11.20;;
29218;SDS011;16421;50.202;7.852;2024-01-15T02:38:21;30.65;;;11.75;;
29218;SDS011;16421;50.202;7.852;2024-01-15T02:43:24;25.55;;;11.65;;
29218;SDS011;16421;50.202;7.852;2024-01-15T02:48:27;30.90;;;13.43;;
29218;SDS011;16421;50.202;7.852;2024-01-15T02:53:32;27.10;;;11.77;;
29218;SDS011;16421;50.202;7.852;2024-01-15T02:58:35;30.33;;;12.43;;
29218;SDS011;16421;50.202;7.852;2024-01-15T03:03:39;30.42;;;12.85;;
29218;SDS011;16421;50.202;7.852;2024-01-15T03:08:44;25.92;;;11.73;;
29218;SDS011;16421;50.202;7.852;2024-01-15T03:13:47;25.45;;;10.43;;
29218;SDS011;16421;50.202;7.852;2024-01-15T03:18:50;27.08;;;11.13;;
29218;SDS011;16421;50.202;7.852;2024-01-15T03:23:55;26.48;;;11.57;;
29218;SDS011;16421;50.202;7.852;2024-01-15T03:28:58;28.35;;;12.38;;
29218;SDS011;16421;50.202;7.852;2024-01-15T03:34:02;27.77;;;12.32;;
29218;SDS011;16421;50.202;7.852;2024-01-15T03:39:06;31.20;;;12.38;;
29218;SDS011;16421;50.202;7.852;2024-01-15T03:44:10;28.98;;;12.45;;
29218;SDS011;16421;50.202;7.852;2024-01-15T03:49:13;30.60;;;12.48;;
29218;SDS011;16421;50.202;7.852;2024-01-15T03:54:18;36.35;;;15.18;;
29218;SDS011;16421;50.202;7.852;2024-01-15T03:59:21;32.92;;;14.20;;
29218;SDS011;16421;50.202;7.852;2024-01-15T04:04:25;35.45;;;15.30;;
29218;SDS011;16421;50.202;7.852;2024-01-15T04:09:29;34.75;;;13.98;;
29218;SDS011;16421;50.202;7.852;2024-01-15T04:14:33;30.85;;;14.23;;
29218;SDS011;16421;50.202;7.852;2024-01-15T04:19:36;40.35;;;16.42;;
29218;SDS011;16421;50.202;7.852;2024-01-15T04:24:40;29.20;;;13.32;;
29218;SDS011;16421;50.202;7.852;2024-01-15T04:29:44;34.92;;;14.02;;
29218;SDS011;16421;50.202;7.852;2024-01-15T04:34:47;32.47;;;13.65;;
29218;SDS011;16421;50.202;7.852;2024-01-15T04:39:52;26.75;;;11.85;;
29218;SDS011;16421;50.202;7.852;2024-01-15T04:44:56;34.70;;;15.32;;
29218;SDS011;16421;50.202;7.852;2024-01-15T04:49:59;30.23;;;13.38;;
29218;SDS011;16421;50.202;7.852;2024-01-15T04:55:04;30.83;;;13.68;;
29218;SDS011;16421;50.202;7.852;2024-01-15T05:00:08;37.60;;;13.90;;
29218;SDS011;16421;50.202;7.852;2024-01-15T05:05:12;24.40;;;10.63;;
29218;SDS011;16421;50.202;7.852;2024-01-15T05:10:17;35.17;;;14.10;;
29218;SDS011;16421;50.202;7.852;2024-01-15T05:15:20;26.38;;;11.60;;
29218;SDS011;16421;50.202;7.852;2024-01-15T05:20:23;25.45;;;11.13;;
29218;SDS011;16421;50.202;7.852;2024-01-15T05:25:28;32.75;;;14.63;;
29218;SDS011;16421;50.202;7.852;2024-01-15T05:30:31;32.60;;;13.57;;
29218;SDS011;16421;50.202;7.852;2024-01-15T05:35:35;33.28;;;15.23;;
29218;SDS011;16421;50.202;7.852;2024-01-15T05:40:40;36.78;;;16.95;;
29218;SDS011;16421;50.202;7.852;2024-01-15T05:45:43;34.55;;;13.82;;
29218;SDS011;16421;50.202;7.852;2024-01-15T05:50:47;34.33;;;15.05;;
29218;SDS011;16421;50.202;7.852;2024-01-15T05:55:51;39.80;;;16.73;;
29218;SDS011;16421;50.202;7.852;2024-01-15T06:00:55;32.50;;;14.97;;
29218;SDS011;16421;50.202;7.852;2024-01-15T06:05:58;35.42;;;14.50;;
29218;SDS011;16421;50.202;7.852;2024-01-15T06:11:03;36.78;;;14.68;;
29218;SDS011;16421;50.202;7.852;2024-01-15T06:16:11;35.15;;;14.35;;
29218;SDS011;16421;50.202;7.852;2024-01-15T06:21:16;32.78;;;15.30;;
29218;SDS011;16421;50.202;7.852;2024-01-15T06:26:20;28.20;;;12.82;;
29218;SDS011;16421;50.202;7.852;2024-01-15T06:31:24;28.23;;;12.43;;
29218;SDS011;16421;50.202;7.852;2024-01-15T06:36:27;35.83;;;14.63;;
29218;SDS011;16421;50.202;7.852;2024-01-15T06:41:32;29.17;;;12.85;;
29218;SDS011;16421;50.202;7.852;2024-01-15T06:46:35;34.20;;;15.13;;
29218;SDS011;16421;50.202;7.852;2024-01-15T06:51:39;32.97;;;14.48;;
29218;SDS011;16421;50.202;7.852;2024-01-15T06:56:44;32.80;;;14.73;;
29218;SDS011;16421;50.202;7.852;2024-01-15T07:01:47;34.10;;;14.95;;
29218;SDS011;16421;50.202;7.852;2024-01-15T07:06:51;35.58;;;15.90;;
29218;SDS011;16421;50.202;7.852;2024-01-15T07:11:55;28.35;;;13.60;;
29218;SDS011;16421;50.202;7.852;2024-01-15T07:16:59;31.85;;;14.45;;
29218;SDS011;16421;50.202;7.852;2024-01-15T07:22:02;28.45;;;12.77;;
29218;SDS011;16421;50.202;7.852;2024-01-15T07:27:07;31.40;;;13.68;;
29218;SDS011;16421;50.202;7.852;2024-01-15T07:32:11;25.48;;;11.95;;
29218;SDS011;16421;50.202;7.852;2024-01-15T07:37:14;30.05;;;14.02;;
29218;SDS011;16421;50.202;7.852;2024-01-15T07:42:19;25.60;;;13.00;;
29218;SDS011;16421;50.202;7.852;2024-01-15T07:47:22;29.05;;;13.85;;
29218;SDS011;16421;50.202;7.852;2024-01-15T07:52:26;25.27;;;12.43;;
29218;SDS011;16421;50.202;7.852;2024-01-15T07:57:30;31.00;;;14.00;;
29218;SDS011;16421;50.202;7.852;2024-01-15T08:02:34;26.23;;;12.02;;
29218;SDS011;16421;50.202;7.852;2024-01-15T08:07:37;21.58;;;10.20;;
29218;SDS011;16421;50.202;7.852;2024-01-15T08:12:42;18.33;;;9.10;;
29218;SDS011;16421;50.202;7.852;2024-01-15T08:17:45;20.88;;;9.45;;
29218;SDS011;16421;50.202;7.852;2024-01-15T08:22:48;26.88;;;12.40;;
29218;SDS011;16421;50.202;7.852;2024-01-15T08:27:53;24.60;;;12.07;;
29218;SDS011;16421;50.202;7.852;2024-01-15T08:32:56;27.45;;;12.60;;
29218;SDS011;16421;50.202;7.852;2024-01-15T08:38:02;25.75;;;12.50;;
29218;SDS011;16421;50.202;7.852;2024-01-15T08:43:07;25.23;;;12.70;;
29218;SDS011;16421;50.202;7.852;2024-01-15T08:48:10;24.73;;;13.35;;
29218;SDS011;16421;50.202;7.852;2024-01-15T08:53:13;23.48;;;11.88;;
29218;SDS011;16421;50.202;7.852;2024-01-15T08:58:20;26.17;;;13.23;;
29218;SDS011;16421;50.202;7.852;2024-01-15T09:03:23;22.40;;;10.85;;
29218;SDS011;16421;50.202;7.852;2024-01-15T09:08:26;21.30;;;10.77;;
29218;SDS011;16421;50.202;7.852;2024-01-15T09:13:31;18.27;;;8.40;;
29218;SDS011;16421;50.202;7.852;2024-01-15T09:18:34;19.05;;;10.02;;
29218;SDS011;16421;50.202;7.852;2024-01-15T09:23:37;23.77;;;11.23;;
29218;SDS011;16421;50.202;7.852;2024-01-15T09:28:42;19.27;;;10.15;;
29218;SDS011;16421;50.202;7.852;2024-01-15T09:33:45;21.15;;;10.63;;
29218;SDS011;16421;50.202;7.852;2024-01-15T09:38:49;21.58;;;11.70;;
29218;SDS011;16421;50.202;7.852;2024-01-15T09:43:53;18.52;;;10.52;;
29218;SDS011;16421;50.202;7.852;2024-01-15T09:48:57;18.17;;;9.38;;
29218;SDS011;16421;50.202;7.852;2024-01-15T09:54:00;18.30;;;8.77;;
29218;SDS011;16421;50.202;7.852;2024-01-15T09:59:06;20.38;;;11.13;;
29218;SDS011;16421;50.202;7.852;2024-01-15T10:04:10;21.27;;;10.95;;
29218;SDS011;16421;50.202;7.852;2024-01-15T10:09:14;18.65;;;10.38;;
29218;SDS011;16421;50.202;7.852;2024-01-15T10:14:19;19.23;;;11.27;;
29218;SDS011;16421;50.202;7.852;2024-01-15T10:19:22;22.15;;;11.70;;
29218;SDS011;16421;50.202;7.852;2024-01-15T10:24:26;18.60;;;9.68;;
29218;SDS011;16421;50.202;7.852;2024-01-15T10:29:32;21.90;;;11.40;;
29218;SDS011;16421;50.202;7.852;2024-01-15T10:34:37;16.42;;;9.10;;
29218;SDS011;16421;50.202;7.852;2024-01-15T10:39:42;17.83;;;10.35;;
29218;SDS011;16421;50.202;7.852;2024-01-15T10:44:46;21.90;;;10.30;;
29218;SDS011;16421;50.202;7.852;2024-01-15T10:49:50;21.23;;;11.60;;
29218;SDS011;16421;50.202;7.852;2024-01-15T10:54:53;17.30;;;9.07;;
29218;SDS011;16421;50.202;7.852;2024-01-15T10:59:58;20.33;;;11.32;;
29218;SDS011;16421;50.202;7.852;2024-01-15T11:05:04;18.83;;;9.48;;
29218;SDS011;16421;50.202;7.852;2024-01-15T11:10:08;20.38;;;10.30;;
29218;SDS011;16421;50.202;7.852;2024-01-15T11:15:35;18.58;;;10.10;;
29218;SDS011;16421;50.202;7.852;2024-01-15T11:21:19;19.17;;;9.27;;
29218;SDS011;16421;50.202;7.852;2024-01-15T11:37:11;18.52;;;10.93;;
29218;SDS011;16421;50.202;7.852;2024-01-15T11:42:15;19.85;;;10.02;;
29218;SDS011;16421;50.202;7.852;2024-01-15T11:47:33;17.52;;;9.45;;
29218;SDS011;16421;50.202;7.852;2024-01-15T11:53:02;17.58;;;9.15;;
29218;SDS011;16421;50.202;7.852;2024-01-15T11:58:07;22.35;;;11.80;;
29218;SDS011;16421;50.202;7.852;2024-01-15T12:03:13;16.30;;;9.82;;
29218;SDS011;16421;50.202;7.852;2024-01-15T12:08:20;18.15;;;9.50;;
29218;SDS011;16421;50.202;7.852;2024-01-15T12:13:24;17.60;;;9.27;;
29218;SDS011;16421;50.202;7.852;2024-01-15T12:18:29;18.08;;;9.93;;
29218;SDS011;16421;50.202;7.852;2024-01-15T12:23:33;18.55;;;9.50;;
29218;SDS011;16421;50.202;7.852;2024-01-15T12:28:36;23.20;;;10.88;;
29218;SDS011;16421;50.202;7.852;2024-01-15T12:33:42;23.80;;;11.50;;
29218;SDS011;16421;50.202;7.852;2024-01-15T12:38:45;20.02;;;9.52;;
29218;SDS011;16421;50.202;7.852;2024-01-15T12:43:49;16.23;;;8.15;;
29218;SDS011;16421;50.202;7.852;2024-01-15T12:48:54;8.43;;;5.57;;
29218;SDS011;16421;50.202;7.852;2024-01-15T12:53:59;18.23;;;9.45;;
29218;SDS011;16421;50.202;7.852;2024-01-15T12:59:02;11.60;;;6.32;;
29218;SDS011;16421;50.202;7.852;2024-01-15T13:04:07;12.63;;;7.32;;
29218;SDS011;16421;50.202;7.852;2024-01-15T13:09:10;10.75;;;5.38;;
29218;SDS011;16421;50.202;7.852;2024-01-15T13:14:14;10.55;;;6.40;;
29218;SDS011;16421;50.202;7.852;2024-01-15T13:19:19;14.98;;;7.57;;
29218;SDS011;16421;50.202;7.852;2024-01-15T13:24:23;16.42;;;7.95;;
29218;SDS011;16421;50.202;7.852;2024-01-15T13:29:27;15.45;;;7.97;;
29218;SDS011;16421;50.202;7.852;2024-01-15T13:34:32;13.30;;;7.78;;
29218;SDS011;16421;50.202;7.852;2024-01-15T13:39:36;10.40;;;6.50;;
29218;SDS011;16421;50.202;7.852;2024-01-15T13:44:39;14.32;;;7.82;;
29218;SDS011;16421;50.202;7.852;2024-01-15T13:49:44;15.00;;;9.10;;
29218;SDS011;16421;50.202;7.852;2024-01-15T13:54:48;12.77;;;6.70;;
29218;SDS011;16421;50.202;7.852;2024-01-15T13:59:52;13.88;;;6.85;;
29218;SDS011;16421;50.202;7.852;2024-01-15T14:04:57;12.32;;;6.45;;
29218;SDS011;16421;50.202;7.852;2024-01-15T14:10:04;10.90;;;5.95;;
29218;SDS011;16421;50.202;7.852;2024-01-15T14:15:11;10.52;;;5.70;;
29218;SDS011;16421;50.202;7.852;2024-01-15T14:20:25;9.88;;;5.28;;
29218;SDS011;16421;50.202;7.852;2024-01-15T14:25:29;10.95;;;5.93;;
29218;SDS011;16421;50.202;7.852;2024-01-15T14:30:34;10.57;;;5.45;;
29218;SDS011;16421;50.202;7.852;2024-01-15T14:35:39;11.30;;;5.00;;
29218;SDS011;16421;50.202;7.852;2024-01-15T14:40:43;10.63;;;4.38;;
29218;SDS011;16421;50.202;7.852;2024-01-15T14:45:47;6.93;;;4.18;;
29218;SDS011;16421;50.202;7.852;2024-01-15T14:50:51;10.88;;;4.70;;
29218;SDS011;16421;50.202;7.852;2024-01-15T14:55:55;9.35;;;3.92;;
29218;SDS011;16421;50.202;7.852;2024-01-15T15:00:59;6.13;;;3.42;;
29218;SDS011;16421;50.202;7.852;2024-01-15T15:06:04;10.32;;;3.17;;
29218;SDS011;16421;50.202;7.852;2024-01-15T15:11:11;8.50;;;4.15;;
29218;SDS011;16421;50.202;7.852;2024-01-15T15:16:14;8.10;;;3.50;;
29218;SDS011;16421;50.202;7.852;2024-01-15T15:21:20;8.27;;;2.72;;
29218;SDS011;16421;50.202;7.852;2024-01-15T15:26:24;3.58;;;1.85;;
29218;SDS011;16421;50.202;7.852;2024-01-15T15:31:27;5.28;;;2.30;;
29218;SDS011;16421;50.202;7.852;2024-01-15T15:36:32;4.90;;;2.38;;
29218;SDS011;16421;50.202;7.852;2024-01-15T15:41:36;4.88;;;1.80;;
29218;SDS011;16421;50.202;7.852;2024-01-15T15:46:39;5.00;;;2.33;;
29218;SDS011;16421;50.202;7.852;2024-01-15T15:51:44;5.30;;;2.20;;
29218;SDS011;16421;50.202;7.852;2024-01-15T15:56:48;3.38;;;1.70;;
29218;SDS011;16421;50.202;7.852;2024-01-15T16:01:54;6.05;;;2.70;;
29218;SDS011;16421;50.202;7.852;2024-01-15T16:06:59;5.28;;;3.08;;
29218;SDS011;16421;50.202;7.852;2024-01-15T16:17:08;4.03;;;1.80;;
29218;SDS011;16421;50.202;7.852;2024-01-15T16:22:13;5.80;;;1.70;;
29218;SDS011;16421;50.202;7.852;2024-01-15T16:27:39;4.93;;;2.03;;
29218;SDS011;16421;50.202;7.852;2024-01-15T16:32:43;4.25;;;1.67;;
29218;SDS011;16421;50.202;7.852;2024-01-15T16:37:49;3.92;;;1.70;;
29218;SDS011;16421;50.202;7.852;2024-01-15T16:42:54;4.07;;;1.83;;
29218;SDS011;16421;50.202;7.852;2024-01-15T16:47:57;3.72;;;1.70;;
29218;SDS011;16421;50.202;7.852;2024-01-15T16:53:05;3.97;;;1.80;;
29218;SDS011;16421;50.202;7.852;2024-01-15T16:58:09;4.90;;;2.00;;
29218;SDS011;16421;50.202;7.852;2024-01-15T17:03:13;3.10;;;1.42;;
29218;SDS011;16421;50.202;7.852;2024-01-15T17:08:18;4.25;;;1.75;;
29218;SDS011;16421;50.202;7.852;2024-01-15T17:13:22;4.82;;;1.80;;
29218;SDS011;16421;50.202;7.852;2024-01-15T17:18:25;2.80;;;1.77;;
29218;SDS011;16421;50.202;7.852;2024-01-15T17:23:30;2.83;;;1.45;;
29218;SDS011;16421;50.202;7.852;2024-01-15T17:28:34;2.60;;;1.73;;
29218;SDS011;16421;50.202;7.852;2024-01-15T17:33:37;2.63;;;1.60;;
29218;SDS011;16421;50.202;7.852;2024-01-15T17:38:42;4.38;;;2.67;;
29218;SDS011;16421;50.202;7.852;2024-01-15T17:43:45;4.40;;;2.40;;
29218;SDS011;16421;50.202;7.852;2024-01-15T17:48:49;4.78;;;2.60;;
29218;SDS011;16421;50.202;7.852;2024-01-15T17:53:54;2.97;;;2.13;;
29218;SDS011;16421;50.202;7.852;2024-01-15T17:58:57;6.88;;;3.22;;
29218;SDS011;16421;50.202;7.852;2024-01-15T18:04:01;5.82;;;3.13;;
29218;SDS011;16421;50.202;7.852;2024-01-15T18:09:06;4.78;;;2.53;;
29218;SDS011;16421;50.202;7.852;2024-01-15T18:14:10;4.57;;;2.53;;
29218;SDS011;16421;50.202;7.852;2024-01-15T18:19:13;8.93;;;3.88;;
29218;SDS011;16421;50.202;7.852;2024-01-15T18:24:20;10.15;;;5.25;;
29218;SDS011;16421;50.202;7.852;2024-01-15T18:29:23;5.35;;;2.80;;
29218;SDS011;16421;50.202;7.852;2024-01-15T18:34:27;7.07;;;3.20;;
29218;SDS011;16421;50.202;7.852;2024-01-15T18:39:31;5.13;;;2.75;;
29218;SDS011;16421;50.202;7.852;2024-01-15T18:44:35;7.40;;;4.40;;
29218;SDS011;16421;50.202;7.852;2024-01-15T18:49:38;5.85;;;2.55;;
29218;SDS011;16421;50.202;7.852;2024-01-15T18:54:49;7.25;;;3.15;;
29218;SDS011;16421;50.202;7.852;2024-01-15T19:00:40;6.78;;;3.17;;
29218;SDS011;16421;50.202;7.852;2024-01-15T19:06:20;4.03;;;1.95;;
29218;SDS011;16421;50.202;7.852;2024-01-15T19:12:02;4.57;;;1.67;;
29218;SDS011;16421;50.202;7.852;2024-01-15T19:17:07;3.00;;;1.23;;
29218;SDS011;16421;50.202;7.852;2024-01-15T19:22:11;4.13;;;1.90;;
29218;SDS011;16421;50.202;7.852;2024-01-15T19:27:16;4.45;;;2.05;;
29218;SDS011;16421;50.202;7.852;2024-01-15T19:32:19;6.68;;;2.67;;
29218;SDS011;16421;50.202;7.852;2024-01-15T19:37:24;25.25;;;8.32;;
29218;SDS011;16421;50.202;7.852;2024-01-15T19:42:29;15.95;;;6.18;;
29218;SDS011;16421;50.202;7.852;2024-01-15T19:47:32;9.20;;;3.78;;
29218;SDS011;16421;50.202;7.852;2024-01-15T19:52:36;9.55;;;3.28;;
29218;SDS011;16421;50.202;7.852;2024-01-15T19:57:42;9.63;;;4.80;;
29218;SDS011;16421;50.202;7.852;2024-01-15T20:02:45;9.15;;;4.35;;
29218;SDS011;16421;50.202;7.852;2024-01-15T20:07:48;11.70;;;4.30;;
29218;SDS011;16421;50.202;7.852;2024-01-15T20:12:53;8.48;;;3.67;;
29218;SDS011;16421;50.202;7.852;2024-01-15T20:17:58;3.38;;;2.40;;
29218;SDS011;16421;50.202;7.852;2024-01-15T20:23:02;5.40;;;2.70;;
29218;SDS011;16421;50.202;7.852;2024-01-15T20:28:07;4.90;;;2.72;;
29218;SDS011;16421;50.202;7.852;2024-01-15T20:33:11;5.80;;;2.72;;
29218;SDS011;16421;50.202;7.852;2024-01-15T20:38:16;9.95;;;2.50;;
29218;SDS011;16421;50.202;7.852;2024-01-15T20:43:22;5.47;;;2.00;;
29218;SDS011;16421;50.202;7.852;2024-01-15T20:48:26;5.88;;;2.40;;
29218;SDS011;16421;50.202;7.852;2024-01-15T20:53:29;3.90;;;1.92;;
29218;SDS011;16421;50.202;7.852;2024-01-15T20:58:34;5.70;;;2.40;;
29218;SDS011;16421;50.202;7.852;2024-01-15T21:03:37;4.18;;;1.95;;
29218;SDS011;16421;50.202;7.852;2024-01-15T21:08:41;5.65;;;2.00;;
29218;SDS011;16421;50.202;7.852;2024-01-15T21:13:45;6.43;;;2.30;;
29218;SDS011;16421;50.202;7.852;2024-01-15T21:18:49;5.32;;;2.10;;
29218;SDS011;16421;50.202;7.852;2024-01-15T21:23:52;4.65;;;2.20;;
29218;SDS011;16421;50.202;7.852;2024-01-15T21:28:57;5.07;;;1.92;;
29218;SDS011;16421;50.202;7.852;2024-01-15T21:34:00;4.90;;;2.00;;
29218;SDS011;16421;50.202;7.852;2024-01-15T21:39:03;4.05;;;2.10;;
29218;SDS011;16421;50.202;7.852;2024-01-15T21:44:08;6.70;;;1.92;;
29218;SDS011;16421;50.202;7.852;2024-01-15T21:49:12;5.35;;;2.50;;
29218;SDS011;16421;50.202;7.852;2024-01-15T21:54:15;5.10;;;2.40;;
29218;SDS011;16421;50.202;7.852;2024-01-15T21:59:20;8.07;;;2.50;;
29218;SDS011;16421;50.202;7.852;2024-01-15T22:04:23;7.63;;;2.53;;
29218;SDS011;16421;50.202;7.852;2024-01-15T22:09:27;9.70;;;3.80;;
29218;SDS011;16421;50.202;7.852;2024-01-15T22:14:31;9.93;;;3.20;;
29218;SDS011;16421;50.202;7.852;2024-01-15T22:19:34;10.43;;;3.58;;
29218;SDS011;16421;50.202;7.852;2024-01-15T22:24:38;8.38;;;3.05;;
29218;SDS011;16421;50.202;7.852;2024-01-15T22:29:42;7.07;;;2.80;;
29218;SDS011;16421;50.202;7.852;2024-01-15T22:34:48;8.10;;;3.05;;
29218;SDS011;16421;50.202;7.852;2024-01-15T22:39:51;6.03;;;3.30;;
29218;SDS011;16421;50.202;7.852;2024-01-15T22:44:56;9.10;;;3.67;;
29218;SDS011;16421;50.202;7.852;2024-01-15T22:49:59;6.07;;;2.90;;
29218;SDS011;16421;50.202;7.852;2024-01-15T22:55:03;9.60;;;3.47;;
29218;SDS011;16421;50.202;7.852;2024-01-15T23:00:09;10.23;;;4.90;;
29218;SDS011;16421;50.202;7.852;2024-01-15T23:05:19;12.88;;;5.13;;
29218;SDS011;16421;50.202;7.852;2024-01-15T23:10:28;14.10;;;6.05;;
29218;SDS011;16421;50.202;7.852;2024-01-15T23:15:37;10.00;;;3.83;;
29218;SDS011;16421;50.202;7.852;2024-01-15T23:20:42;7.60;;;3.53;;
29218;SDS011;16421;50.202;7.852;2024-01-15T23:25:54;10.73;;;4.88;;
29218;SDS011;16421;50.202;7.852;2024-01-15T23:31:01;15.65;;;6.95;;
29218;SDS011;16421;50.202;7.852;2024-01-15T23:36:06;12.65;;;6.72;;
29218;SDS011;16421;50.202;7.852;2024-01-15T23:41:16;12.75;;;5.80;;
29218;SDS011;16421;50.202;7.852;2024-01-15T23:46:21;10.32;;;5.45;;
29218;SDS011;16421;50.202;7.852;2024-01-15T23:51:25;12.93;;;5.80;;
29218;SDS011;16421;50.202;7.852;2024-01-15T23:56:30;17.92;;;6.57;;
